Time;durP1;ratioP1;P1;durP2;ratioP2;P2;SDS_P1;SDS_P2;PMS_P1;PMS_P2;Temp;Humidity;BMP_temperature;BMP_pressure;BME280_temperature;BME280_humidity;BME280_pressure;Samples;Min_cycle;Max_cycle;Signal;HPM_P1;HPM_P2
2021/05/11 00:01:48;;;;;;;4.05;2.67;;;;;;;12.46;38.61;100994.09;1743880;82;21102;-41
2021/05/11 00:04:16;;;;;;;4.22;2.65;;;;;;;12.43;38.65;100991.56;1744023;82;21043;-41
2021/05/11 00:06:44;;;;;;;5.50;3.00;;;;;;;12.42;38.81;100989.42;1743913;80;21145;-42
2021/05/11 00:09:13;;;;;;;4.83;3.10;;;;;;;12.39;39.13;100988.61;1743837;82;21074;-40
2021/05/11 00:11:41;;;;;;;6.87;3.08;;;;;;;12.36;39.27;100987.78;1743879;82;21093;-42
2021/05/11 00:14:09;;;;;;;8.40;3.90;;;;;;;12.32;39.16;100983.95;1743909;82;21058;-41
2021/05/11 00:16:37;;;;;;;5.83;2.85;;;;;;;12.29;39.77;100978.83;1743972;82;21089;-41
2021/05/11 00:19:08;;;;;;;6.12;2.67;;;;;;;12.26;39.49;100974.98;1743963;82;21391;-41
2021/05/11 00:21:36;;;;;;;9.70;4.47;;;;;;;12.23;39.54;100973.75;1743912;82;20999;-41
2021/05/11 00:24:05;;;;;;;8.55;2.70;;;;;;;12.20;39.92;100975.94;1743934;82;21934;-41
2021/05/11 00:26:34;;;;;;;6.90;2.85;;;;;;;12.19;39.45;100972.50;1743901;82;21066;-41
2021/05/11 00:29:02;;;;;;;5.25;3.33;;;;;;;12.20;39.84;100968.16;1745807;82;21003;-41
2021/05/11 00:31:31;;;;;;;9.53;3.00;;;;;;;12.22;39.63;100966.38;1749490;82;21376;-41
2021/05/11 00:33:58;;;;;;;2.55;2.20;;;;;;;12.22;39.83;100961.20;1749443;82;21022;-41
2021/05/11 00:36:26;;;;;;;7.03;2.52;;;;;;;12.22;39.82;100965.09;1749524;82;21014;-41
2021/05/11 00:38:54;;;;;;;11.40;5.70;;;;;;;12.22;39.86;100963.79;1749412;82;20907;-41
2021/05/11 00:41:21;;;;;;;4.03;2.35;;;;;;;12.18;40.23;100948.73;1749485;82;21006;-41
2021/05/11 00:43:49;;;;;;;4.85;3.27;;;;;;;12.16;40.77;100949.20;1749508;82;21206;-42
2021/05/11 00:46:18;;;;;;;3.42;2.67;;;;;;;12.15;40.73;100946.63;1749456;82;21094;-41
2021/05/11 00:48:46;;;;;;;9.60;2.72;;;;;;;12.12;40.43;100945.37;1749413;82;21026;-41
2021/05/11 00:51:14;;;;;;;3.42;1.70;;;;;;;12.07;40.51;100941.13;1749460;82;20963;-40
2021/05/11 00:53:42;;;;;;;5.35;3.20;;;;;;;12.05;40.49;100942.02;1749535;82;21762;-40
2021/05/11 00:56:11;;;;;;;6.28;2.95;;;;;;;12.06;40.56;100938.12;1749472;82;21420;-40
2021/05/11 00:58:39;;;;;;;3.67;2.40;;;;;;;12.04;40.69;100941.61;1749368;82;21074;-40
2021/05/11 01:01:07;;;;;;;2.90;2.08;;;;;;;12.02;40.83;100951.16;1749429;82;21034;-40
2021/05/11 01:03:36;;;;;;;7.28;3.75;;;;;;;11.99;40.82;100944.70;1749414;82;20943;-40
2021/05/11 01:06:04;;;;;;;6.00;3.90;;;;;;;11.95;41.54;100950.82;1749469;80;20903;-40
2021/05/11 01:08:32;;;;;;;5.58;3.05;;;;;;;11.92;41.09;100945.23;1749526;82;21332;-41
2021/05/11 01:10:59;;;;;;;4.65;2.70;;;;;;;11.84;42.49;100947.94;1749398;82;21018;-40
2021/05/11 01:13:27;;;;;;;4.35;2.58;;;;;;;11.77;41.90;100948.92;1749494;82;21054;-40
2021/05/11 01:15:55;;;;;;;9.28;3.33;;;;;;;11.68;42.12;100946.48;1749589;82;21034;-41
2021/05/11 01:18:29;;;;;;;4.53;3.40;;;;;;;11.60;42.30;100944.84;1749678;82;21065;-41
2021/05/11 01:20:58;;;;;;;5.78;2.62;;;;;;;11.52;42.73;100943.27;1749604;82;21210;-41
2021/05/11 01:26:20;;;;;;;2.17;1.98;;;;;;;11.34;42.90;100946.53;1749759;82;21059;-40
2021/05/11 01:28:54;;;;;;;8.48;2.83;;;;;;;11.30;43.25;100953.94;1748186;82;21022;-41
2021/05/11 01:31:36;;;;;;;7.47;2.17;;;;;;;11.22;43.63;100942.37;1748642;82;20967;-41
2021/05/11 01:47:30;;;;;;;3.72;2.30;;;;;;;10.77;45.02;100959.31;1749535;82;21145;-40
2021/05/11 01:52:38;;;;;;;4.45;2.55;;;;;;;10.68;45.65;100961.13;1749510;82;21007;-40
2021/05/11 02:22:43;;;;;;;3.80;1.75;;;;;;;10.52;47.15;100957.85;1749630;82;21007;-42
2021/05/11 02:25:12;;;;;;;6.95;2.85;;;;;;;10.49;47.87;100956.17;1749734;82;21097;-41
2021/05/11 02:27:41;;;;;;;5.47;1.75;;;;;;;10.45;47.48;100957.05;1749593;82;22282;-40
2021/05/11 02:30:12;;;;;;;4.70;2.20;;;;;;;10.44;47.49;100941.10;1746235;82;21109;-40
2021/05/11 02:32:41;;;;;;;4.22;3.30;;;;;;;10.44;47.76;100948.87;1744010;82;20971;-41
2021/05/11 02:35:11;;;;;;;12.25;3.17;;;;;;;10.41;47.69;100946.31;1743952;82;21074;-41
2021/05/11 02:37:39;;;;;;;4.25;2.15;;;;;;;10.40;48.02;100954.92;1744031;82;21007;-41
2021/05/11 02:40:09;;;;;;;8.68;2.90;;;;;;;10.39;47.92;100952.78;1743993;82;21207;-41
2021/05/11 02:42:38;;;;;;;9.58;2.95;;;;;;;10.40;47.25;100949.74;1743973;82;21034;-41
2021/05/11 02:45:10;;;;;;;4.87;3.80;;;;;;;10.41;47.90;100953.66;1743931;82;21039;-42
2021/05/11 02:47:47;;;;;;;4.55;3.08;;;;;;;10.41;47.83;100949.77;1744067;82;21500;-41
2021/05/11 02:50:07;;;;;;;4.20;2.72;;;;;;;10.42;48.32;100946.31;1742543;82;21094;-41
2021/05/11 02:52:35;;;;;;;6.85;3.05;;;;;;;10.44;47.73;100947.15;1744008;82;21336;-41
2021/05/11 02:55:05;;;;;;;3.98;2.20;;;;;;;10.47;47.98;100954.01;1744009;82;20964;-41
2021/05/11 02:57:33;;;;;;;5.35;2.27;;;;;;;10.53;47.52;100955.27;1743943;82;21090;-41
2021/05/11 03:00:00;;;;;;;3.65;2.70;;;;;;;10.59;47.21;100953.90;1743991;82;21026;-41
2021/05/11 03:02:28;;;;;;;4.87;2.60;;;;;;;10.64;47.45;100949.52;1743949;82;20995;-41
2021/05/11 03:04:57;;;;;;;2.87;2.20;;;;;;;10.69;47.09;100949.91;1743976;82;21279;-39
2021/05/11 03:07:25;;;;;;;9.55;2.67;;;;;;;10.74;47.64;100950.73;1743872;80;21027;-40
2021/05/11 03:09:55;;;;;;;3.40;2.25;;;;;;;10.78;47.60;100949.82;1744004;82;21063;-41
2021/05/11 03:12:22;;;;;;;3.52;2.22;;;;;;;10.82;47.63;100951.50;1743990;82;21401;-42
2021/05/11 03:14:50;;;;;;;1.75;1.65;;;;;;;10.87;47.43;100951.00;1743949;82;20951;-41
2021/05/11 03:17:18;;;;;;;4.62;2.00;;;;;;;10.92;47.07;100941.89;1743988;82;21202;-41
2021/05/11 03:19:46;;;;;;;9.98;1.95;;;;;;;10.97;47.23;100944.40;1743971;82;20971;-41
2021/05/11 03:22:14;;;;;;;3.40;2.45;;;;;;;11.03;47.41;100943.05;1744003;82;21003;-41
2021/05/11 03:24:45;;;;;;;2.12;1.82;;;;;;;11.07;47.23;100938.25;1744051;82;21058;-41
2021/05/11 03:27:13;;;;;;;4.15;2.42;;;;;;;11.12;47.62;100939.03;1743944;82;21022;-40
2021/05/11 03:29:41;;;;;;;5.85;2.42;;;;;;;11.17;47.24;100943.72;1743795;82;21211;-40
2021/05/11 03:32:10;;;;;;;5.92;1.90;;;;;;;11.21;46.89;100934.18;1743860;82;21014;-40
2021/05/11 03:34:38;;;;;;;3.05;2.20;;;;;;;11.26;46.65;100931.08;1743927;82;20955;-40
2021/05/11 03:37:06;;;;;;;3.58;2.50;;;;;;;11.28;46.68;100935.80;1743868;82;21019;-40
2021/05/11 03:39:44;;;;;;;5.90;2.12;;;;;;;11.32;46.83;100934.03;1743930;82;21007;-40
2021/05/11 03:42:13;;;;;;;3.45;2.47;;;;;;;11.34;46.73;100924.50;1740490;82;21502;-40
2021/05/11 03:44:36;;;;;;;4.15;1.95;;;;;;;11.36;47.54;100920.98;1742805;82;20958;-40
2021/05/11 03:47:15;;;;;;;2.35;2.12;;;;;;;11.43;47.06;100912.69;1847673;76;22765;-40
2021/05/11 03:49:48;;;;;;;4.45;2.50;;;;;;;11.47;46.48;100907.03;1884601;76;22038;-40
2021/05/11 03:52:24;;;;;;;4.45;1.57;;;;;;;11.53;47.28;100906.09;1889861;76;22662;-40
2021/05/11 03:54:59;;;;;;;2.20;2.00;;;;;;;11.61;46.31;100904.23;1847644;76;22796;-40
2021/05/11 03:57:45;;;;;;;8.88;1.98;;;;;;;11.61;46.10;100897.29;1817869;79;21268;-40
2021/05/11 04:00:20;;;;;;;2.27;2.08;;;;;;;11.72;46.31;100894.98;1889920;76;22579;-40
2021/05/11 04:02:56;;;;;;;7.20;2.47;;;;;;;11.77;46.29;100886.68;1847654;76;22725;-40
2021/05/11 04:05:41;;;;;;;5.22;1.65;;;;;;;11.77;46.52;100897.92;1808957;79;20938;-41
2021/05/11 04:08:32;;;;;;;3.52;1.70;;;;;;;11.86;46.43;100891.70;1847645;76;22724;-40
2021/05/11 04:10:59;;;;;;;3.90;2.00;;;;;;;11.88;46.01;100895.58;1847569;76;22747;-40
2021/05/11 04:13:49;;;;;;;2.72;1.75;;;;;;;11.88;46.32;100900.77;1847645;76;22666;-40
2021/05/11 04:16:18;;;;;;;3.27;2.27;;;;;;;11.88;46.35;100903.37;1847596;76;22702;-41
2021/05/11 04:18:59;;;;;;;2.67;2.02;;;;;;;11.86;46.64;100908.56;1817765;79;21005;-41
2021/05/11 04:21:34;;;;;;;4.60;1.98;;;;;;;11.93;46.43;100902.84;1847693;76;22627;-40
2021/05/11 04:24:33;;;;;;;5.75;2.30;;;;;;;11.99;46.52;100887.62;1879513;75;22671;-39
2021/05/11 04:27:23;;;;;;;5.70;1.85;;;;;;;12.05;46.82;100885.81;1847697;76;22672;-40
2021/05/11 04:30:03;;;;;;;2.37;1.80;;;;;;;12.12;46.89;100880.50;1847681;76;22690;-41
2021/05/11 04:32:38;;;;;;;7.10;2.25;;;;;;;12.20;46.69;100873.42;1847689;76;22676;-40
2021/05/11 04:35:13;;;;;;;5.80;2.05;;;;;;;12.27;46.76;100881.53;1889892;75;22613;-40
2021/05/11 04:37:59;;;;;;;;;;;;;;;12.29;46.52;100878.47;1863472;77;21010;-41
2021/05/11 04:40:35;;;;;;;12.20;2.30;;;;;;;12.37;47.40;100864.02;1847674;76;22764;-40
2021/05/11 04:43:10;;;;;;;8.63;1.80;;;;;;;12.41;46.85;100853.14;1847615;76;22678;-40
2021/05/11 04:48:39;;;;;;;3.52;2.00;;;;;;;12.42;46.55;100848.36;1847591;76;22776;-40
2021/05/11 04:51:15;;;;;;;7.37;2.40;;;;;;;12.38;47.69;100845.42;1847621;76;22666;-41
2021/05/11 04:54:00;;;;;;;;;;;;;;;12.34;47.55;100849.38;1820446;79;20970;-41
2021/05/11 04:56:36;;;;;;;5.83;2.05;;;;;;;12.45;46.84;100845.70;1889934;76;22633;-40
2021/05/11 04:59:11;;;;;;;12.78;2.22;;;;;;;12.47;47.88;100843.92;1889926;76;22562;-40
2021/05/11 05:01:49;;;;;;;11.20;2.05;;;;;;;12.51;47.64;100844.30;1847698;76;22659;-41
2021/05/11 05:04:37;;;;;;;16.10;2.52;;;;;;;12.49;47.46;100844.31;1817721;78;21572;-40
2021/05/11 05:07:11;;;;;;;9.08;2.40;;;;;;;12.54;48.04;100832.55;1818104;76;22668;-41
2021/05/11 05:09:47;;;;;;;5.97;2.10;;;;;;;12.59;48.44;100837.20;1889926;76;22636;-40
2021/05/11 05:12:22;;;;;;;3.17;1.90;;;;;;;12.68;48.24;100818.41;1847642;76;22749;-40
2021/05/11 05:14:57;;;;;;;3.87;2.02;;;;;;;12.73;47.64;100810.93;1847702;76;22765;-40
2021/05/11 05:17:33;;;;;;;4.03;1.85;;;;;;;12.78;48.40;100822.53;1852145;77;22849;-41
2021/05/11 05:20:19;;;;;;;3.02;1.42;;;;;;;12.85;47.56;100828.42;1780964;80;21022;-41
2021/05/11 05:22:54;;;;;;;6.75;2.52;;;;;;;13.03;47.28;100827.18;1847697;76;22815;-41
2021/05/11 05:25:29;;;;;;;11.12;2.35;;;;;;;13.09;46.90;100823.13;1847640;76;22743;-40
2021/05/11 05:28:15;;;;;;;;;;;;;;;13.19;46.76;100842.81;1820456;79;21002;-41
2021/05/11 05:30:51;;;;;;;4.03;1.45;;;;;;;13.57;46.82;100844.11;1847699;75;22773;-41
2021/05/11 05:33:34;;;;;;;3.62;1.65;;;;;;;14.00;45.99;100849.96;1847634;76;22164;-41
2021/05/11 05:36:28;;;;;;;4.60;2.25;;;;;;;14.50;45.65;100842.97;1847680;76;22711;-41
2021/05/11 05:39:13;;;;;;;1.80;1.62;;;;;;;14.79;44.82;100845.66;1817920;79;20978;-41
2021/05/11 05:41:49;;;;;;;2.12;1.22;;;;;;;15.27;44.22;100838.97;1847633;76;22737;-41
2021/05/11 05:44:24;;;;;;;8.80;1.70;;;;;;;15.54;42.18;100839.44;1847624;76;22814;-41
2021/05/11 05:47:00;;;;;;;2.98;1.45;;;;;;;15.67;42.29;100836.80;1889935;76;22540;-41
2021/05/11 05:49:48;;;;;;;2.70;2.00;;;;;;;15.79;41.47;100829.87;1860846;77;21028;-42
2021/05/11 05:52:33;;;;;;;3.40;1.60;;;;;;;15.82;41.95;100821.54;1847638;76;22678;-41
2021/05/11 05:55:02;;;;;;;9.68;1.60;;;;;;;15.76;42.52;100816.91;1847597;76;22647;-41
2021/05/11 05:57:47;;;;;;;2.75;1.40;;;;;;;15.72;42.30;100816.62;1817729;77;20934;-41
2021/05/11 06:00:26;;;;;;;8.25;1.50;;;;;;;15.64;42.55;100810.81;1847605;76;22713;-41
2021/05/11 06:03:07;;;;;;;5.17;1.67;;;;;;;15.57;43.29;100791.06;1847643;76;22627;-41
2021/05/11 06:05:53;;;;;;;8.10;1.60;;;;;;;15.51;43.76;100794.72;1806815;79;21029;-41
2021/05/11 06:08:29;;;;;;;4.75;1.50;;;;;;;15.66;43.85;100797.27;1847710;76;22729;-41
2021/05/11 06:11:18;;;;;;;8.20;1.80;;;;;;;15.81;43.08;100790.66;1831988;76;28361;-41
2021/05/11 06:14:07;;;;;;;4.90;1.50;;;;;;;16.04;43.38;100802.08;1889906;76;22529;-41
2021/05/11 06:19:22;;;;;;;2.35;1.45;;;;;;;16.22;43.26;100780.53;1847535;76;22737;-41
2021/05/11 06:21:58;;;;;;;10.48;2.00;;;;;;;16.31;42.42;100772.80;1847680;76;22698;-41
2021/05/11 06:24:33;;;;;;;5.10;1.50;;;;;;;16.29;43.53;100763.31;1847682;76;22686;-41
2021/05/11 06:27:10;;;;;;;10.48;1.77;;;;;;;16.38;43.39;100773.41;1889932;76;22554;-41
2021/05/11 06:29:56;;;;;;;3.50;1.30;;;;;;;16.52;43.37;100767.21;1860650;77;20966;-40
2021/05/11 06:32:32;;;;;;;4.40;1.40;;;;;;;16.80;42.09;100780.98;1847682;76;22767;-41
2021/05/11 06:35:09;;;;;;;11.38;1.72;;;;;;;17.00;41.72;100781.95;1847659;76;22741;-41
2021/05/11 06:37:45;;;;;;;7.33;1.80;;;;;;;17.26;41.68;100783.52;1868497;75;27771;-41
2021/05/11 06:40:20;;;;;;;3.52;1.52;;;;;;;17.52;40.44;100779.80;1889899;76;22570;-41
2021/05/11 06:43:06;;;;;;;;;;;;;;;17.38;40.16;100780.86;1863476;77;20935;-42
2021/05/11 06:48:31;;;;;;;3.70;1.47;;;;;;;17.32;41.06;100799.44;1847597;76;22723;-41
2021/05/11 06:53:51;;;;;;;3.72;1.65;;;;;;;17.47;40.19;100777.84;1845784;76;22650;-41
2021/05/11 06:56:31;;;;;;;11.78;1.62;;;;;;;17.27;40.44;100766.91;1847656;76;22725;-41
2021/05/11 06:59:06;;;;;;;4.20;1.30;;;;;;;17.17;41.18;100770.80;1873838;76;27754;-41
2021/05/11 07:01:52;;;;;;;5.03;1.40;;;;;;;17.14;41.08;100752.63;1860799;77;20954;-41
2021/05/11 07:04:28;;;;;;;6.33;1.57;;;;;;;17.18;41.44;100745.91;1847589;75;22775;-41
2021/05/11 07:07:07;;;;;;;3.85;1.62;;;;;;;17.47;40.92;100751.67;1820398;76;22799;-41
2021/05/11 07:10:05;;;;;;;4.90;1.50;;;;;;;17.77;40.09;100767.44;1785568;80;20930;-42
2021/05/11 07:15:25;;;;;;;6.80;1.50;;;;;;;18.20;40.04;100772.55;1889914;76;22628;-41
2021/05/11 07:18:16;;;;;;;;;;;;;;;18.30;38.89;100774.30;1863478;77;20950;-42
2021/05/11 07:20:58;;;;;;;6.08;1.47;;;;;;;18.30;39.47;100776.92;1889979;76;23134;-41
2021/05/11 07:23:33;;;;;;;8.45;1.30;;;;;;;18.15;40.43;100762.75;1847610;76;22678;-41
2021/05/11 07:29:09;;;;;;;5.22;1.62;;;;;;;18.27;39.92;100769.20;1817855;79;21003;-41
2021/05/11 07:31:41;;;;;;;10.97;1.87;;;;;;;18.48;40.06;100747.25;1873829;76;37765;-41
2021/05/11 07:34:18;;;;;;;2.00;1.30;;;;;;;18.79;39.69;100759.33;1889906;76;22640;-41
2021/05/11 07:36:54;;;;;;;6.47;1.63;;;;;;;18.98;39.83;100752.78;1868518;76;27665;-41
2021/05/11 07:39:29;;;;;;;6.25;1.75;;;;;;;19.13;38.72;100749.87;1847621;76;22638;-41
2021/05/11 07:42:14;;;;;;;6.30;1.52;;;;;;;19.19;38.59;100759.18;1817839;78;20942;-42
2021/05/11 07:44:55;;;;;;;5.45;1.65;;;;;;;19.42;38.25;100765.05;1889913;76;22573;-41
2021/05/11 07:47:58;;;;;;;11.55;3.10;;;;;;;19.64;38.50;100770.06;1847599;76;22679;-41
2021/05/11 08:02:33;;;;;;;8.10;2.22;;;;;;;20.67;37.03;100741.81;1853433;76;22690;-41
2021/05/11 08:16:12;;;;;;;7.28;1.85;;;;;;;20.94;35.85;100735.48;1847632;76;23246;-41
2021/05/11 08:19:13;;;;;;;4.87;1.70;;;;;;;20.92;35.54;100737.36;1825625;76;22643;-41
2021/05/11 08:22:17;;;;;;;6.33;1.72;;;;;;;20.96;35.30;100732.30;1894688;74;22637;-41
2021/05/11 08:27:44;;;;;;;7.33;1.80;;;;;;;20.99;36.07;100718.13;1866168;75;22746;-41
2021/05/11 08:30:19;;;;;;;6.87;1.82;;;;;;;21.21;35.99;100714.20;1847282;76;22725;-42
2021/05/11 08:33:06;;;;;;;2.45;1.42;;;;;;;21.04;35.79;100725.27;1814880;79;20967;-41
2021/05/11 08:35:43;;;;;;;3.87;1.40;;;;;;;21.32;35.71;100716.20;1826819;76;22647;-41
2021/05/11 08:38:20;;;;;;;9.67;1.80;;;;;;;21.44;36.27;100710.21;1806786;76;27858;-41
2021/05/11 08:40:57;;;;;;;7.50;2.12;;;;;;;21.53;36.08;100700.42;1840255;76;23199;-41
2021/05/11 08:43:36;;;;;;;5.80;1.80;;;;;;;21.79;35.63;100702.45;1873615;74;34454;-41
2021/05/11 08:46:58;;;;;;;11.15;1.75;;;;;;;22.00;34.55;100692.34;1815824;79;22480;-42
2021/05/11 08:49:34;;;;;;;7.70;1.52;;;;;;;22.04;35.78;100689.89;1818835;76;38078;-41
2021/05/11 08:52:31;;;;;;;11.00;1.60;;;;;;;22.31;34.35;100697.47;1847371;76;22641;-41
2021/05/11 09:14:57;;;;;;;4.92;2.20;;;;;;;22.64;35.18;100697.10;1839882;76;23369;-42
2021/05/11 09:26:10;;;;;;;8.60;1.80;;;;;;;23.35;34.13;100686.25;1888297;74;22632;-42
2021/05/11 09:28:59;;;;;;;3.15;1.30;;;;;;;23.61;33.20;100684.05;1895037;74;22730;-42
2021/05/11 09:31:48;;;;;;;5.45;1.62;;;;;;;23.51;34.39;100690.48;1803845;77;22752;-42
2021/05/11 10:13:14;;;;;;;14.65;1.60;;;;;;;24.49;34.37;100663.73;1830203;76;22707;-42
2021/05/11 10:15:04;;;;;;;16.20;1.85;;;;;;;24.67;33.54;100643.84;1828907;76;22748;-42
2021/05/11 10:49:36;;;;;;;8.50;1.60;;;;;;;23.74;36.51;100669.04;1831889;76;22489;-42
2021/05/11 10:52:23;;;;;;;8.40;1.50;;;;;;;23.55;37.04;100670.82;1887100;75;22721;-42
2021/05/11 10:55:26;;;;;;;12.68;1.90;;;;;;;23.39;37.68;100673.20;1826420;76;23307;-42
2021/05/11 10:58:08;;;;;;;8.75;1.92;;;;;;;23.48;38.41;100673.03;1863113;75;22699;-42
2021/05/11 11:00:55;;;;;;;18.95;2.20;;;;;;;23.47;37.81;100685.88;1826662;76;22845;-42
2021/05/11 11:03:26;;;;;;;10.15;1.75;;;;;;;23.36;37.95;100676.05;1841436;76;22666;-42
2021/05/11 11:06:11;;;;;;;10.60;1.98;;;;;;;23.24;39.05;100692.23;1785608;79;21034;-42
2021/05/11 11:08:47;;;;;;;12.80;1.75;;;;;;;23.47;38.79;100685.88;1861058;75;22679;-42
2021/05/11 11:11:23;;;;;;;8.25;1.55;;;;;;;23.48;38.28;100700.77;1832089;76;22739;-42
2021/05/11 11:13:59;;;;;;;15.17;7.80;;;;;;;23.34;38.55;100700.41;1855983;76;27823;-42
2021/05/11 11:16:37;;;;;;;10.88;1.57;;;;;;;23.36;39.12;100693.68;1844118;76;23254;-43
2021/05/11 11:19:13;;;;;;;14.17;1.97;;;;;;;23.21;39.36;100707.42;1779616;79;28117;-41
2021/05/11 11:24:37;;;;;;;5.80;2.58;;;;;;;23.04;38.99;100709.44;1891621;74;22737;-42
2021/05/11 11:27:13;;;;;;;12.70;1.75;;;;;;;22.57;40.87;100710.30;1810078;77;22854;-41
2021/05/11 11:30:00;;;;;;;5.92;2.17;;;;;;;22.46;40.55;100700.44;1829120;76;22670;-42
2021/05/11 11:32:35;;;;;;;4.90;1.40;;;;;;;22.24;41.84;100712.36;1865774;76;27850;-41
2021/05/11 11:35:12;;;;;;;18.73;2.08;;;;;;;22.28;42.12;100714.31;1864687;76;22660;-43
2021/05/11 11:37:48;;;;;;;15.15;1.80;;;;;;;21.92;42.04;100704.68;1857185;75;28365;-41
2021/05/11 11:40:23;;;;;;;8.55;1.50;;;;;;;21.96;42.12;100706.66;1882382;76;22715;-42
2021/05/11 11:42:58;;;;;;;4.42;1.30;;;;;;;21.69;42.64;100712.70;1840399;76;22718;-43
2021/05/11 11:45:39;;;;;;;6.72;1.72;;;;;;;21.31;43.36;100718.45;1827279;76;22766;-42
2021/05/11 11:48:19;;;;;;;13.38;1.50;;;;;;;21.14;44.32;100712.43;1878508;76;22679;-42
2021/05/11 11:51:00;;;;;;;5.40;1.80;;;;;;;21.09;44.79;100723.67;1829441;76;22770;-41
2021/05/11 11:53:39;;;;;;;9.13;1.85;;;;;;;21.16;44.78;100722.84;1826833;76;22699;-42
2021/05/11 11:56:38;;;;;;;2.42;1.35;;;;;;;21.08;44.90;100732.50;1841889;76;22659;-41
2021/05/11 11:59:14;;;;;;;4.40;1.75;;;;;;;20.93;45.17;100737.73;1789594;79;21029;-41
2021/05/11 12:02:01;;;;;;;6.40;1.52;;;;;;;20.70;44.79;100723.70;1878146;74;22694;-41
2021/05/11 12:04:38;;;;;;;6.95;1.65;;;;;;;20.32;45.86;100756.46;1819316;76;22849;-42
2021/05/11 12:07:32;;;;;;;8.38;1.80;;;;;;;20.00;46.56;100755.95;1766743;79;20891;-41
2021/05/11 12:10:09;;;;;;;27.90;2.65;;;;;;;19.71;48.29;100774.55;1873279;74;22725;-42
2021/05/11 12:12:44;;;;;;;9.73;2.47;;;;;;;19.49;47.63;100775.16;1858994;76;27798;-42
2021/05/11 12:15:30;;;;;;;15.18;2.62;;;;;;;19.23;48.55;100784.37;1826677;77;21029;-41
2021/05/11 12:20:52;;;;;;;8.98;2.30;;;;;;;18.66;49.31;100777.42;1879884;74;22731;-40
2021/05/11 12:23:28;;;;;;;8.95;2.65;;;;;;;18.27;50.06;100799.33;1835988;76;22695;-41
2021/05/11 12:26:06;;;;;;;8.25;2.33;;;;;;;17.98;50.57;100807.53;1886686;75;22713;-41
2021/05/11 12:28:45;;;;;;;15.45;2.83;;;;;;;17.64;51.73;100833.39;1844662;76;22783;-42
2021/05/11 12:31:40;;;;;;;12.05;2.98;;;;;;;17.49;52.26;100823.11;1799483;79;21192;-41
2021/05/11 12:34:24;;;;;;;13.35;3.17;;;;;;;17.31;52.21;100825.20;1873365;75;22859;-41
2021/05/11 12:37:01;;;;;;;5.33;3.00;;;;;;;17.06;52.88;100820.95;1861257;75;22743;-41
2021/05/11 12:39:54;;;;;;;10.13;3.25;;;;;;;16.89;53.21;100817.20;1836454;77;21018;-41
2021/05/11 12:42:31;;;;;;;7.55;2.72;;;;;;;16.82;53.66;100803.98;1885354;74;22684;-41
2021/05/11 12:45:15;;;;;;;12.80;3.30;;;;;;;16.68;53.90;100825.44;1868789;76;21997;-41
2021/05/11 12:48:04;;;;;;;13.75;3.00;;;;;;;16.56;54.51;100829.36;1837389;77;20970;-42
2021/05/11 12:50:40;;;;;;;10.55;2.85;;;;;;;16.53;54.65;100837.28;1841004;76;22712;-41
2021/05/11 12:59:53;;;;;;;9.90;3.10;;;;;;;16.17;57.18;100854.27;1835121;76;23255;-41
2021/05/11 13:25:44;;;;;;;6.40;2.67;;;;;;;15.57;59.62;100881.08;1805347;77;21168;-41
2021/05/11 13:31:00;;;;;;;9.08;3.08;;;;;;;15.69;59.64;100878.05;1829585;76;22759;-41
2021/05/11 13:33:51;;;;;;;4.28;3.45;;;;;;;15.68;59.51;100884.64;1804865;79;21010;-41
2021/05/11 13:36:23;;;;;;;3.45;3.15;;;;;;;15.85;59.62;100876.24;1825626;76;24346;-40
2021/05/11 13:38:58;;;;;;;7.58;2.95;;;;;;;16.19;59.70;100875.97;1826730;77;22730;-41
2021/05/11 13:41:46;;;;;;;3.50;2.37;;;;;;;16.57;58.12;100868.09;1809521;78;20974;-40
2021/05/11 13:44:23;;;;;;;4.67;2.70;;;;;;;16.85;56.13;100857.45;1857771;76;27832;-41
2021/05/11 13:46:58;;;;;;;10.63;2.87;;;;;;;17.09;55.43;100861.38;1856407;76;38118;-41
2021/05/11 13:49:44;;;;;;;6.37;2.50;;;;;;;17.62;54.34;100867.11;1820544;77;21005;-41
2021/05/11 13:52:20;;;;;;;5.05;2.47;;;;;;;18.33;51.70;100852.77;1884410;74;23326;-41
2021/05/11 13:54:59;;;;;;;3.55;2.00;;;;;;;18.78;49.62;100842.85;1836855;76;22687;-41
2021/05/11 14:03:16;;;;;;;10.48;2.27;;;;;;;19.39;47.82;100842.19;1858204;76;22026;-41
2021/05/11 14:06:02;;;;;;;8.13;1.70;;;;;;;19.84;45.97;100840.41;1808291;77;20921;-41
2021/05/11 14:08:37;;;;;;;2.45;1.55;;;;;;;20.44;44.98;100829.86;1885527;75;22676;-41
2021/05/11 14:11:13;;;;;;;8.78;1.45;;;;;;;20.89;43.45;100820.86;1830103;76;22741;-41
2021/05/11 14:13:48;;;;;;;8.85;1.22;;;;;;;21.19;41.78;100820.91;1870248;75;22647;-42
2021/05/11 14:16:24;;;;;;;5.83;1.27;;;;;;;21.29;40.37;100822.54;1850858;76;22901;-41
2021/05/11 14:18:59;;;;;;;6.95;1.50;;;;;;;21.29;40.14;100828.26;1838398;76;22745;-42
2021/05/11 14:21:35;;;;;;;1.52;1.10;;;;;;;21.38;39.93;100819.84;1880362;76;22763;-41
2021/05/11 14:24:10;;;;;;;1.75;1.15;;;;;;;21.46;39.61;100814.11;1890334;74;22670;-41
2021/05/11 14:26:56;;;;;;;;;;;;;;;21.53;39.87;100828.62;1850680;75;21049;-41
2021/05/11 14:29:32;;;;;;;3.37;1.30;;;;;;;21.73;39.65;100814.78;1861052;76;22766;-41
2021/05/11 14:32:07;;;;;;;4.28;1.45;;;;;;;21.68;38.82;100816.37;1873918;76;22774;-41
2021/05/11 14:34:43;;;;;;;2.17;1.50;;;;;;;21.59;38.87;100812.45;1833123;76;22699;-41
2021/05/11 14:37:18;;;;;;;4.87;1.17;;;;;;;21.66;38.35;100821.71;1865519;75;22775;-42
2021/05/11 14:39:54;;;;;;;1.50;1.25;;;;;;;21.71;37.84;100814.00;1879262;75;22677;-42
2021/05/11 14:42:29;;;;;;;1.95;1.30;;;;;;;21.72;38.92;100808.66;1832725;76;23133;-41
2021/05/11 14:45:07;;;;;;;3.83;1.40;;;;;;;21.75;38.71;100805.00;1883820;75;23217;-41
2021/05/11 14:47:46;;;;;;;8.75;1.45;;;;;;;21.54;38.39;100798.72;1883013;76;22672;-41
2021/05/11 14:50:29;;;;;;;4.75;1.37;;;;;;;21.28;37.47;100805.05;1841255;77;21042;-41
2021/05/11 14:53:05;;;;;;;1.65;1.10;;;;;;;21.25;36.09;100803.44;1825115;77;22650;-41
2021/05/11 14:55:40;;;;;;;4.67;0.93;;;;;;;21.25;34.80;100796.02;1853926;76;22766;-41
2021/05/11 14:58:16;;;;;;;6.40;0.82;;;;;;;21.02;34.92;100808.72;1838356;76;22787;-41
2021/05/11 15:00:55;;;;;;;3.90;1.47;;;;;;;20.91;34.77;100801.88;1831028;76;22726;-42
2021/05/11 15:03:31;;;;;;;4.05;1.07;;;;;;;20.74;34.67;100795.78;1870127;76;22721;-41
2021/05/11 15:06:17;;;;;;;2.98;0.85;;;;;;;20.39;35.60;100807.30;1840490;77;21046;-41
2021/05/11 15:08:52;;;;;;;2.12;1.10;;;;;;;20.34;36.17;100804.08;1868782;75;22679;-41
2021/05/11 15:11:28;;;;;;;4.40;1.05;;;;;;;20.47;36.79;100813.47;1868763;75;22695;-41
2021/05/11 15:14:13;;;;;;;3.67;1.02;;;;;;;20.58;36.74;100810.70;1834300;77;21050;-41
2021/05/11 15:16:57;;;;;;;3.52;0.95;;;;;;;20.86;36.65;100802.17;1881364;76;22398;-42
2021/05/11 15:19:26;;;;;;;0.98;0.70;;;;;;;21.03;36.50;100801.20;1831138;76;22801;-42
2021/05/11 15:22:02;;;;;;;9.55;0.62;;;;;;;21.19;33.49;100801.62;1895825;74;22677;-41
2021/05/11 15:24:37;;;;;;;1.02;0.60;;;;;;;21.03;32.91;100794.62;1832915;76;22693;-42
2021/05/11 15:27:13;;;;;;;10.65;0.82;;;;;;;20.81;32.60;100797.61;1824388;76;22707;-42
2021/05/11 15:29:51;;;;;;;2.95;0.50;;;;;;;20.68;33.27;100806.62;1866160;75;22663;-41
2021/05/11 15:32:55;;;;;;;4.20;0.45;;;;;;;20.63;33.66;100809.52;1902215;74;22586;-42
2021/05/11 15:35:33;;;;;;;5.47;0.60;;;;;;;20.63;33.01;100810.84;1892090;74;22560;-42
2021/05/11 15:38:09;;;;;;;2.37;0.40;;;;;;;20.46;33.19;100817.03;1868567;76;22620;-41
2021/05/11 15:40:45;;;;;;;2.22;0.33;;;;;;;20.41;33.81;100820.83;1882483;74;22015;-41
2021/05/11 15:43:21;;;;;;;7.50;0.40;;;;;;;20.52;33.70;100819.77;1835442;76;22695;-41
2021/05/11 15:45:57;;;;;;;0.78;0.30;;;;;;;20.47;32.96;100817.86;1863738;75;22764;-42
2021/05/11 15:48:32;;;;;;;6.40;0.57;;;;;;;20.32;32.46;100819.55;1834661;76;22654;-41
2021/05/11 15:51:07;;;;;;;1.85;0.68;;;;;;;20.19;32.39;100819.34;1893111;74;22874;-42
2021/05/11 15:53:46;;;;;;;1.82;0.50;;;;;;;20.09;32.31;100821.16;1887091;74;22735;-42
2021/05/11 15:56:21;;;;;;;1.95;0.55;;;;;;;20.05;32.60;100810.41;1863748;76;22640;-42
2021/05/11 15:59:00;;;;;;;6.25;0.50;;;;;;;19.99;32.62;100827.81;1831304;76;22648;-42
2021/05/11 16:01:44;;;;;;;0.28;0.28;;;;;;;19.97;32.97;100827.05;1806212;79;20919;-42